Caribbean Sea — PHNU — position and weather

sailwx.info

Track history (hours):
 
Tides and Currents Weather Stations Pressure Air Temp Water Temp Dewpoint Dewpoint Depression Visibility Wind Speed Wind Dir Waves Ship Positions

Caribbean Sea

Last reported at 2014-Dec-17 03:09 UTC. Time now 2014-Dec-19 10:07 UTC.
Position N 19°31' W 095°02'.

Length 183 m; draft 8.8 m.

Type: Ship (hazmat cat A). MMSI: 244523000.

Date/timePositionNaut miles runAvg speedWind from/ knotsBaromVisibWave heightAir tempDewpointWater temp
2014-Dec-17 03:09N 19°31' W 095°02'1217.6
2014-Dec-17 02:30N 19°26' W 095°13'26 8.4
2014-Dec-16 23:27N 19°16' W 095°38'1517.1
2014-Dec-16 22:34N 19°12' W 095°54'1313.0
2014-Dec-16 21:34N 19°12' W 096°08'1 0.5
2014-Dec-16 20:28N 19°12' W 096°08'0 0.0
2014-Dec-16 19:31N 19°12' W 096°08'0 0.0
2014-Dec-16 18:31N 19°12' W 096°08'0 0.0
2014-Dec-16 17:31N 19°12' W 096°08'0 0.0
2014-Dec-16 16:31N 19°12' W 096°08'0 0.0
2014-Dec-16 15:32N 19°12' W 096°08'0 0.0
2014-Dec-16 14:32N 19°12' W 096°08'0 0.0
2014-Dec-16 13:32N 19°12' W 096°08'0 0.0
2014-Dec-16 12:32N 19°12' W 096°08'0 0.0
2014-Dec-16 11:32N 19°12' W 096°08'0 0.0
2014-Dec-16 10:32N 19°12' W 096°08'3 3.5
2014-Dec-16 09:34N 19°12' W 096°05'1111.3
2014-Dec-16 08:34N 19°23' W 096°02'2017.8
2014-Dec-16 07:25N 19°41' W 096°10'  
2014-Dec-13 06:16N 29°11' W 094°31'1313.3
2014-Dec-13 05:19N 29°20' W 094°41'7 8.6
2014-Dec-13 04:33N 29°22' W 094°48'1110.6
2014-Dec-13 03:33N 29°32' W 094°54'1110.6
2014-Dec-13 02:33N 29°41' W 094°59'7 7.1
2014-Dec-13 01:34N 29°45' W 095°06'0 0.5
2014-Dec-13 00:32N 29°45' W 095°07'0 0.0
2014-Dec-12 23:32N 29°45' W 095°07'0 0.0
2014-Dec-12 22:33N 29°45' W 095°07'0 0.0
2014-Dec-12 21:33N 29°45' W 095°07'0 0.0
2014-Dec-12 20:33N 29°45' W 095°07'0 0.0
2014-Dec-12 19:33N 29°45' W 095°07'0 0.0
2014-Dec-12 18:33N 29°45' W 095°07'0 0.0
2014-Dec-12 17:31N 29°45' W 095°07'0 0.0
2014-Dec-12 16:31N 29°45' W 095°07'0 0.0
2014-Dec-12 15:28N 29°45' W 095°07'0 0.0
2014-Dec-12 14:31N 29°45' W 095°07'0 0.0
2014-Dec-12 13:25N 29°45' W 095°07'0 0.0
2014-Dec-12 12:26N 29°45' W 095°07'0 0.0
2014-Dec-12 11:32N 29°45' W 095°07'0 0.0
2014-Dec-12 10:32N 29°45' W 095°07'0 0.0
2014-Dec-12 09:32N 29°45' W 095°07'0 0.0
2014-Dec-12 08:31N 29°45' W 095°07'0 0.0
2014-Dec-12 07:31N 29°45' W 095°07'0 0.0
2014-Dec-12 06:31N 29°45' W 095°07'0 0.0
2014-Dec-12 05:31N 29°45' W 095°07'0 0.0
2014-Dec-12 04:31N 29°45' W 095°07'0 0.0
2014-Dec-12 03:29N 29°45' W 095°07'0 0.0
2014-Dec-12 02:32N 29°45' W 095°07'0 0.0
2014-Dec-12 01:32N 29°45' W 095°07'0 0.0
2014-Dec-12 00:32N 29°45' W 095°07'0 0.0
2014-Dec-11 23:33N 29°45' W 095°07'0 0.0
2014-Dec-11 22:33N 29°45' W 095°07'0 0.0
2014-Dec-11 21:32N 29°45' W 095°07'0 0.0
2014-Dec-11 20:32N 29°45' W 095°07'0 0.0
2014-Dec-11 19:32N 29°45' W 095°07'0 0.0
2014-Dec-11 18:32N 29°45' W 095°07'0 0.0
2014-Dec-11 17:32N 29°45' W 095°07'0 0.0
2014-Dec-11 16:29N 29°45' W 095°07'0 0.0
2014-Dec-11 15:32N 29°45' W 095°07'1 1.1
2014-Dec-11 14:33N 29°45' W 095°06'6 5.8
2014-Dec-11 13:33N 29°42' W 095°00'1211.7
2014-Dec-11 12:34N 29°32' W 094°54'  
Track history (hours):
 
Tides and Currents Weather Stations Pressure Air Temp Water Temp Dewpoint Dewpoint Depression Visibility Wind Speed Wind Dir Waves Ship Positions

Caribbean Sea

Last reported at 2014-Dec-17 03:09 UTC. Time now 2014-Dec-19 10:07 UTC.
Position N 19°31' W 095°02'.

Length 183 m; draft 8.8 m.

Type: Ship (hazmat cat A). MMSI: 244523000.

Date/timePositionNaut miles runAvg speedWind from/ knotsBaromVisibWave heightAir tempDewpointWater temp
2014-Dec-17 03:09N 19°31' W 095°02'1217.6
2014-Dec-17 02:30N 19°26' W 095°13'26 8.4
2014-Dec-16 23:27N 19°16' W 095°38'1517.1
2014-Dec-16 22:34N 19°12' W 095°54'1313.0
2014-Dec-16 21:34N 19°12' W 096°08'1 0.5
2014-Dec-16 20:28N 19°12' W 096°08'0 0.0
2014-Dec-16 19:31N 19°12' W 096°08'0 0.0
2014-Dec-16 18:31N 19°12' W 096°08'0 0.0
2014-Dec-16 17:31N 19°12' W 096°08'0 0.0
2014-Dec-16 16:31N 19°12' W 096°08'0 0.0
2014-Dec-16 15:32N 19°12' W 096°08'0 0.0
2014-Dec-16 14:32N 19°12' W 096°08'0 0.0
2014-Dec-16 13:32N 19°12' W 096°08'0 0.0
2014-Dec-16 12:32N 19°12' W 096°08'0 0.0
2014-Dec-16 11:32N 19°12' W 096°08'0 0.0
2014-Dec-16 10:32N 19°12' W 096°08'3 3.5
2014-Dec-16 09:34N 19°12' W 096°05'1111.3
2014-Dec-16 08:34N 19°23' W 096°02'2017.8
2014-Dec-16 07:25N 19°41' W 096°10'  
2014-Dec-13 06:16N 29°11' W 094°31'1313.3
2014-Dec-13 05:19N 29°20' W 094°41'7 8.6
2014-Dec-13 04:33N 29°22' W 094°48'1110.6
2014-Dec-13 03:33N 29°32' W 094°54'1110.6
2014-Dec-13 02:33N 29°41' W 094°59'7 7.1
2014-Dec-13 01:34N 29°45' W 095°06'0 0.5
2014-Dec-13 00:32N 29°45' W 095°07'0 0.0
2014-Dec-12 23:32N 29°45' W 095°07'0 0.0
2014-Dec-12 22:33N 29°45' W 095°07'0 0.0
2014-Dec-12 21:33N 29°45' W 095°07'0 0.0
2014-Dec-12 20:33N 29°45' W 095°07'0 0.0
2014-Dec-12 19:33N 29°45' W 095°07'0 0.0
2014-Dec-12 18:33N 29°45' W 095°07'0 0.0
2014-Dec-12 17:31N 29°45' W 095°07'0 0.0
2014-Dec-12 16:31N 29°45' W 095°07'0 0.0
2014-Dec-12 15:28N 29°45' W 095°07'0 0.0
2014-Dec-12 14:31N 29°45' W 095°07'0 0.0
2014-Dec-12 13:25N 29°45' W 095°07'0 0.0
2014-Dec-12 12:26N 29°45' W 095°07'0 0.0
2014-Dec-12 11:32N 29°45' W 095°07'0 0.0
2014-Dec-12 10:32N 29°45' W 095°07'0 0.0
2014-Dec-12 09:32N 29°45' W 095°07'0 0.0
2014-Dec-12 08:31N 29°45' W 095°07'0 0.0
2014-Dec-12 07:31N 29°45' W 095°07'0 0.0
2014-Dec-12 06:31N 29°45' W 095°07'0 0.0
2014-Dec-12 05:31N 29°45' W 095°07'0 0.0
2014-Dec-12 04:31N 29°45' W 095°07'0 0.0
2014-Dec-12 03:29N 29°45' W 095°07'0 0.0
2014-Dec-12 02:32N 29°45' W 095°07'0 0.0
2014-Dec-12 01:32N 29°45' W 095°07'0 0.0
2014-Dec-12 00:32N 29°45' W 095°07'0 0.0
2014-Dec-11 23:33N 29°45' W 095°07'0 0.0
2014-Dec-11 22:33N 29°45' W 095°07'0 0.0
2014-Dec-11 21:32N 29°45' W 095°07'0 0.0
2014-Dec-11 20:32N 29°45' W 095°07'0 0.0
2014-Dec-11 19:32N 29°45' W 095°07'0 0.0
2014-Dec-11 18:32N 29°45' W 095°07'0 0.0
2014-Dec-11 17:32N 29°45' W 095°07'0 0.0
2014-Dec-11 16:29N 29°45' W 095°07'0 0.0
2014-Dec-11 15:32N 29°45' W 095°07'1 1.1
2014-Dec-11 14:33N 29°45' W 095°06'6 5.8
2014-Dec-11 13:33N 29°42' W 095°00'1211.7
2014-Dec-11 12:34N 29°32' W 094°54'  

Dump ship's entire track history